Time;durP1;ratioP1;P1;durP2;ratioP2;P2;SDS_P1;SDS_P2;PMS_P1;PMS_P2;Temp;Humidity;BMP_temperature;BMP_pressure;BME280_temperature;BME280_humidity;BME280_pressure;Samples;Min_cycle;Max_cycle;Signal;HPM_P1;HPM_P2
2021/05/21 00:01:58;;;;;;;1.17;1.10;;;;;;;18.00;62.71;100946.11;1764992;80;21036;-48
2021/05/21 00:04:26;;;;;;;1.35;1.17;;;;;;;18.01;62.66;100946.52;1782939;79;21087;-49
2021/05/21 00:06:54;;;;;;;1.87;1.02;;;;;;;18.02;62.63;100942.94;1773870;79;21033;-49
2021/05/21 00:09:21;;;;;;;1.67;1.00;;;;;;;17.99;62.76;100936.52;1785381;79;21087;-48
2021/05/21 00:11:49;;;;;;;1.52;0.90;;;;;;;18.00;62.87;100938.20;1786110;79;21618;-48
2021/05/21 00:14:18;;;;;;;1.80;0.93;;;;;;;18.03;62.84;100935.44;1766161;80;21090;-48
2021/05/21 00:16:45;;;;;;;0.80;0.80;;;;;;;18.02;62.86;100940.30;1769472;80;21548;-48
2021/05/21 00:19:12;;;;;;;0.90;0.90;;;;;;;18.02;62.65;100941.62;1777917;79;21036;-49
2021/05/21 00:21:40;;;;;;;1.20;1.10;;;;;;;18.00;62.54;100950.05;1779025;79;21123;-48
2021/05/21 00:24:09;;;;;;;0.70;0.70;;;;;;;17.98;62.41;100951.45;1774766;80;21065;-49
2021/05/21 00:26:36;;;;;;;1.05;1.00;;;;;;;17.96;62.34;100955.09;1767392;80;21055;-48
2021/05/21 00:29:06;;;;;;;0.72;0.70;;;;;;;17.95;62.21;100957.34;1769267;79;21084;-49
2021/05/21 00:31:33;;;;;;;0.80;0.80;;;;;;;17.95;62.17;100954.71;1767603;80;21063;-49
2021/05/21 00:34:00;;;;;;;0.78;0.78;;;;;;;17.94;62.13;100961.75;1783737;80;21023;-48
2021/05/21 00:36:27;;;;;;;1.00;1.00;;;;;;;17.94;62.02;100960.89;1782506;79;21567;-48
2021/05/21 00:38:54;;;;;;;0.75;0.75;;;;;;;17.91;62.04;100959.25;1772189;80;21040;-49
2021/05/21 00:41:21;;;;;;;0.80;0.80;;;;;;;17.88;62.03;100955.02;1766682;79;21032;-48
2021/05/21 00:43:54;;;;;;;1.32;1.22;;;;;;;17.87;62.14;100955.92;1776907;80;21033;-48
2021/05/21 00:46:21;;;;;;;1.20;1.10;;;;;;;17.88;62.29;100952.38;1766221;79;21076;-48
2021/05/21 00:48:48;;;;;;;0.80;0.80;;;;;;;17.91;62.40;100950.53;1768702;80;21166;-48
2021/05/21 00:51:14;;;;;;;0.98;0.95;;;;;;;17.93;62.48;100946.04;1790371;79;21028;-48
2021/05/21 00:53:41;;;;;;;0.78;0.70;;;;;;;17.92;62.46;100950.44;1777780;79;21072;-49
2021/05/21 00:56:08;;;;;;;0.80;0.80;;;;;;;17.92;62.25;100945.17;1778571;79;21020;-48
2021/05/21 00:58:36;;;;;;;1.62;0.98;;;;;;;17.91;62.31;100940.00;1770794;79;21041;-48
2021/05/21 01:01:03;;;;;;;1.27;0.98;;;;;;;17.88;62.27;100941.85;1774804;79;21532;-49
2021/05/21 01:03:31;;;;;;;1.27;1.00;;;;;;;17.84;62.35;100940.30;1775706;79;21012;-48
2021/05/21 01:05:58;;;;;;;0.93;0.90;;;;;;;17.84;62.44;100942.92;1768756;79;21099;-49
2021/05/21 01:08:25;;;;;;;2.37;1.10;;;;;;;17.84;62.48;100942.92;1781391;79;21564;-48
2021/05/21 01:10:52;;;;;;;0.80;0.80;;;;;;;17.83;62.35;100946.92;1778663;79;21523;-48
2021/05/21 01:13:19;;;;;;;0.90;0.90;;;;;;;17.81;62.37;100944.84;1760325;79;21567;-48
2021/05/21 01:15:47;;;;;;;0.80;0.80;;;;;;;17.82;62.43;100946.55;1770288;79;21076;-48
2021/05/21 01:18:16;;;;;;;0.88;0.80;;;;;;;17.82;62.36;100954.00;1777189;79;21049;-48
2021/05/21 01:20:44;;;;;;;0.88;0.80;;;;;;;17.84;62.34;100951.28;1768452;79;21067;-49
2021/05/21 01:23:11;;;;;;;1.15;0.80;;;;;;;17.85;62.21;100951.20;1728536;82;21089;-48
2021/05/21 01:25:38;;;;;;;0.80;0.80;;;;;;;17.83;62.06;100950.42;1723536;82;21563;-49
2021/05/21 01:28:05;;;;;;;0.75;0.75;;;;;;;17.80;62.12;100951.87;1766955;80;21031;-48
2021/05/21 01:30:32;;;;;;;0.90;0.90;;;;;;;17.78;62.15;100958.98;1776297;80;21056;-49
2021/05/21 01:33:08;;;;;;;1.37;0.82;;;;;;;17.74;62.00;100966.64;1776929;79;21020;-48
2021/05/21 01:35:35;;;;;;;1.10;1.00;;;;;;;17.72;62.18;100965.86;1778260;79;21540;-49
2021/05/21 01:38:01;;;;;;;1.12;0.82;;;;;;;17.71;62.42;100973.39;1780143;79;21072;-48
2021/05/21 01:40:28;;;;;;;1.55;0.98;;;;;;;17.71;62.49;100974.70;1768416;80;21087;-48
2021/05/21 01:42:59;;;;;;;0.80;0.80;;;;;;;17.72;62.60;100961.09;1774548;79;21129;-48
2021/05/21 01:45:27;;;;;;;0.68;0.68;;;;;;;17.72;62.34;100964.55;1768441;79;21527;-48
2021/05/21 01:47:53;;;;;;;0.62;0.62;;;;;;;17.72;62.31;100972.93;1770513;80;21044;-48
2021/05/21 01:50:20;;;;;;;1.37;1.00;;;;;;;17.71;62.34;100973.39;1766217;80;21056;-49
2021/05/21 01:52:47;;;;;;;0.98;0.90;;;;;;;17.71;62.52;100973.39;1774260;79;21131;-49
2021/05/21 01:55:14;;;;;;;2.45;1.10;;;;;;;17.69;62.42;100971.29;1786756;79;21017;-49
2021/05/21 01:57:42;;;;;;;2.17;0.95;;;;;;;17.67;62.27;100975.77;1763013;80;21087;-49
2021/05/21 02:00:11;;;;;;;7.22;1.32;;;;;;;17.66;62.40;100985.89;1768338;80;21040;-49
2021/05/21 02:02:42;;;;;;;2.85;1.05;;;;;;;17.65;62.26;100968.41;1765723;80;21079;-48
2021/05/21 02:05:10;;;;;;;1.37;1.10;;;;;;;17.66;62.41;100975.86;1770438;79;21053;-48
2021/05/21 02:07:39;;;;;;;1.40;0.98;;;;;;;17.65;62.19;100978.94;1761990;79;21582;-48
2021/05/21 02:10:08;;;;;;;1.30;1.12;;;;;;;17.63;62.30;100987.38;1740413;80;21048;-48
2021/05/21 02:12:36;;;;;;;1.25;1.05;;;;;;;17.61;62.29;100977.38;1739748;80;21603;-48
2021/05/21 02:15:07;;;;;;;1.25;1.15;;;;;;;17.63;62.09;100980.80;1705270;82;21103;-49
2021/05/21 02:17:34;;;;;;;1.12;1.02;;;;;;;17.47;62.64;100986.35;1716614;82;21030;-49
2021/05/21 02:20:02;;;;;;;0.95;0.95;;;;;;;17.51;62.57;100983.14;1701296;83;21028;-48
2021/05/21 02:22:30;;;;;;;1.10;1.00;;;;;;;17.52;62.47;100984.38;1773291;79;21068;-49
2021/05/21 02:24:58;;;;;;;1.15;1.07;;;;;;;17.51;62.65;100980.05;1770207;79;21076;-48
2021/05/21 02:27:26;;;;;;;1.32;1.22;;;;;;;17.48;62.74;100985.41;1773878;80;21037;-48
2021/05/21 02:29:53;;;;;;;1.12;1.12;;;;;;;17.48;63.01;100986.73;1780840;79;21024;-49
2021/05/21 02:32:19;;;;;;;1.70;1.30;;;;;;;17.48;63.05;100986.73;1760607;80;21071;-48
2021/05/21 02:34:46;;;;;;;1.00;1.00;;;;;;;17.50;62.98;100987.54;1768168;79;21053;-48
2021/05/21 02:37:15;;;;;;;2.85;1.15;;;;;;;17.54;62.75;100987.78;1783231;79;21559;-48
2021/05/21 02:39:42;;;;;;;1.62;1.30;;;;;;;17.55;62.82;100990.83;1767463;79;21578;-49
2021/05/21 02:42:09;;;;;;;1.30;1.20;;;;;;;17.55;62.76;100996.09;1763166;80;21017;-49
2021/05/21 02:44:37;;;;;;;1.25;1.15;;;;;;;17.54;62.88;100995.68;1769962;79;21552;-48
2021/05/21 02:47:04;;;;;;;1.32;1.20;;;;;;;17.52;62.57;100995.35;1780528;79;21027;-48
2021/05/21 02:49:33;;;;;;;1.00;1.00;;;;;;;17.53;62.70;101004.52;1771551;80;21036;-48
2021/05/21 02:52:00;;;;;;;1.25;1.15;;;;;;;17.53;62.80;101003.20;1769314;79;21045;-49
2021/05/21 02:54:26;;;;;;;1.30;1.20;;;;;;;17.54;62.64;101010.16;1768865;80;21088;-48
2021/05/21 02:56:53;;;;;;;1.40;1.30;;;;;;;17.54;62.75;101008.84;1769020;80;21060;-51
2021/05/21 02:59:20;;;;;;;1.40;1.05;;;;;;;17.55;62.83;101014.51;1776099;79;21555;-49
2021/05/21 03:01:47;;;;;;;2.72;1.67;;;;;;;17.55;62.87;101011.02;1766063;80;21043;-49
2021/05/21 03:04:13;;;;;;;1.50;1.40;;;;;;;17.56;62.92;101014.02;1773225;79;21302;-48
2021/05/21 03:06:40;;;;;;;1.55;1.32;;;;;;;17.55;62.90;101009.70;1743481;79;21591;-49
2021/05/21 03:09:07;;;;;;;1.42;1.32;;;;;;;17.53;62.77;101015.04;1780838;79;21080;-49
2021/05/21 03:11:35;;;;;;;1.67;1.30;;;;;;;17.55;62.73;101025.03;1776098;79;21059;-48
2021/05/21 03:14:03;;;;;;;3.35;1.90;;;;;;;17.56;62.85;101025.86;1780507;79;21079;-49
2021/05/21 03:16:30;;;;;;;2.20;1.20;;;;;;;17.56;62.79;101028.03;1773366;80;21487;-48
2021/05/21 03:18:57;;;;;;;2.00;1.30;;;;;;;17.58;62.71;101029.27;1786903;79;21067;-48
2021/05/21 03:21:23;;;;;;;1.60;1.47;;;;;;;17.58;62.63;101026.19;1759570;79;21087;-48
2021/05/21 03:23:50;;;;;;;1.10;1.00;;;;;;;17.61;62.39;101030.01;1766091;80;21593;-48
2021/05/21 03:26:18;;;;;;;1.62;1.02;;;;;;;17.64;62.59;101037.75;1774911;79;21033;-49
2021/05/21 03:28:45;;;;;;;1.10;1.10;;;;;;;17.68;62.33;101036.67;1764100;80;21091;-48
2021/05/21 03:31:12;;;;;;;0.90;0.90;;;;;;;17.67;62.32;101036.30;1769690;80;21053;-49
2021/05/21 03:33:38;;;;;;;1.07;0.98;;;;;;;17.72;62.46;101042.19;1771929;80;20980;-49
2021/05/21 03:36:06;;;;;;;1.32;1.00;;;;;;;17.72;62.38;101042.19;1782277;79;21587;-48
2021/05/21 03:38:33;;;;;;;0.80;0.80;;;;;;;17.76;62.38;101049.50;1779443;79;21004;-49
2021/05/21 03:41:01;;;;;;;3.45;1.40;;;;;;;17.80;62.19;101049.27;1793814;79;21106;-49
2021/05/21 03:43:28;;;;;;;1.30;1.20;;;;;;;17.78;62.13;101053.75;1787129;79;21087;-48
2021/05/21 03:45:55;;;;;;;2.90;1.07;;;;;;;17.81;62.06;101056.70;1778820;79;21536;-48
2021/05/21 03:48:22;;;;;;;1.27;1.17;;;;;;;17.79;61.93;101060.73;1783510;80;21068;-50
2021/05/21 03:50:49;;;;;;;0.98;0.93;;;;;;;17.81;62.00;101072.05;1777227;79;21045;-50
2021/05/21 03:53:16;;;;;;;2.52;1.20;;;;;;;17.82;62.05;101068.50;1782900;79;21111;-49
2021/05/21 03:55:44;;;;;;;1.10;1.00;;;;;;;17.85;61.91;101078.02;1780432;79;21575;-51
2021/05/21 03:58:11;;;;;;;1.40;1.30;;;;;;;17.84;61.83;101077.18;1774227;79;21052;-49
2021/05/21 04:00:38;;;;;;;1.25;1.15;;;;;;;17.83;61.79;101076.77;1763014;79;21036;-49
2021/05/21 04:03:06;;;;;;;1.57;1.05;;;;;;;17.84;61.76;101079.81;1767542;79;21068;-48
2021/05/21 04:05:33;;;;;;;1.30;1.20;;;;;;;17.85;61.64;101084.14;1776823;79;21058;-49
2021/05/21 04:08:00;;;;;;;3.45;1.27;;;;;;;17.86;61.73;101081.91;1775910;79;21546;-49
2021/05/21 04:10:27;;;;;;;1.20;1.10;;;;;;;17.86;61.73;101074.02;1780758;79;21029;-49
2021/05/21 04:12:55;;;;;;;1.17;1.10;;;;;;;17.84;61.67;101075.87;1764730;79;21104;-50
2021/05/21 04:15:21;;;;;;;1.10;1.10;;;;;;;17.88;61.72;101080.52;1762751;80;21124;-50
2021/05/21 04:17:48;;;;;;;1.15;1.05;;;;;;;17.91;61.92;101086.11;1772424;80;21567;-48
2021/05/21 04:20:15;;;;;;;1.52;1.27;;;;;;;17.98;61.87;101092.33;1769880;79;21083;-48
2021/05/21 04:22:42;;;;;;;1.60;1.10;;;;;;;18.02;61.81;101091.70;1774298;80;21079;-48
2021/05/21 04:25:11;;;;;;;1.35;1.22;;;;;;;18.06;61.49;101084.05;1783941;79;21083;-49
2021/05/21 04:27:37;;;;;;;2.05;1.10;;;;;;;18.07;61.60;101094.99;1783637;79;21012;-48
2021/05/21 04:30:07;;;;;;;1.47;1.37;;;;;;;18.09;61.42;101089.19;1766627;80;21049;-49
2021/05/21 04:32:34;;;;;;;2.67;1.32;;;;;;;18.10;61.36;101092.20;1768997;80;21519;-48
2021/05/21 04:35:01;;;;;;;1.22;1.05;;;;;;;18.13;61.43;101098.66;1771518;79;21009;-49
2021/05/21 04:37:28;;;;;;;1.50;1.37;;;;;;;18.15;61.29;101104.70;1778604;79;21051;-49
2021/05/21 04:39:55;;;;;;;1.30;1.20;;;;;;;18.16;61.35;101107.25;1781421;80;21041;-48
2021/05/21 04:42:21;;;;;;;2.65;1.72;;;;;;;18.20;61.43;101109.27;1777527;80;21064;-49
2021/05/21 04:44:48;;;;;;;1.60;1.50;;;;;;;18.25;61.09;101116.50;1772778;79;21016;-49
2021/05/21 04:47:15;;;;;;;1.27;1.17;;;;;;;18.28;61.23;101119.01;1759608;80;21056;-48
2021/05/21 04:49:43;;;;;;;1.22;1.12;;;;;;;18.28;60.61;101124.28;1773804;79;21633;-49
2021/05/21 04:52:09;;;;;;;3.83;1.10;;;;;;;18.25;60.77;101121.77;1772902;79;21040;-49
2021/05/21 04:54:38;;;;;;;1.15;1.05;;;;;;;18.21;61.04;101121.53;1772684;79;21007;-47
2021/05/21 04:57:06;;;;;;;1.65;1.10;;;;;;;18.21;61.31;101125.48;1766575;80;21021;-48
2021/05/21 04:59:33;;;;;;;1.55;0.95;;;;;;;18.25;61.21;101129.22;1779609;79;21060;-49
2021/05/21 05:02:00;;;;;;;1.00;1.00;;;;;;;18.27;60.97;101137.05;1780822;79;21045;-49
2021/05/21 05:04:27;;;;;;;1.12;1.00;;;;;;;18.29;61.00;101134.73;1770185;79;21051;-49
2021/05/21 05:06:54;;;;;;;2.00;1.20;;;;;;;18.35;60.91;101141.48;1778961;80;21099;-49
2021/05/21 05:09:22;;;;;;;1.40;1.20;;;;;;;18.39;60.80;101137.77;1767381;79;21047;-48
2021/05/21 05:11:48;;;;;;;1.25;1.15;;;;;;;18.41;60.82;101138.55;1757512;79;21088;-48
2021/05/21 05:14:15;;;;;;;0.93;0.93;;;;;;;18.49;60.93;101150.92;1781193;79;21064;-48
2021/05/21 05:16:42;;;;;;;1.30;1.20;;;;;;;18.58;60.59;101149.18;1784348;79;21087;-49
2021/05/21 05:19:09;;;;;;;1.10;1.00;;;;;;;18.65;60.64;101147.94;1770175;80;21524;-49
2021/05/21 05:21:41;;;;;;;1.40;1.20;;;;;;;18.77;60.14;101142.09;1783775;79;21049;-48
2021/05/21 05:24:16;;;;;;;0.80;0.70;;;;;;;18.87;60.16;101143.34;1775395;79;21075;-49
2021/05/21 05:26:44;;;;;;;1.20;1.10;;;;;;;19.02;59.63;101143.04;1706425;82;21648;-48
2021/05/21 05:29:12;;;;;;;1.57;1.00;;;;;;;19.13;59.48;101143.33;1712009;83;21623;-47
2021/05/21 05:31:39;;;;;;;1.17;0.98;;;;;;;19.25;58.79;101144.88;1723263;82;21108;-48
2021/05/21 05:34:06;;;;;;;1.82;1.17;;;;;;;19.29;58.52;101145.57;1719301;82;21045;-50
2021/05/21 05:36:34;;;;;;;1.50;1.40;;;;;;;19.36;58.29;101149.65;1716935;81;21045;-48
2021/05/21 05:39:01;;;;;;;1.62;1.17;;;;;;;19.39;58.01;101158.25;1707244;82;21032;-49
2021/05/21 05:41:29;;;;;;;0.98;0.88;;;;;;;19.39;57.91;101160.89;1693296;82;21081;-49
2021/05/21 05:43:56;;;;;;;1.62;1.02;;;;;;;19.36;57.60;101151.83;1695425;82;21110;-48
2021/05/21 05:46:24;;;;;;;1.07;0.98;;;;;;;19.27;57.85;101150.94;1710581;82;21085;-49
2021/05/21 05:48:51;;;;;;;1.27;1.17;;;;;;;19.21;58.13;101156.53;1718978;82;21068;-49
2021/05/21 05:51:18;;;;;;;0.88;0.85;;;;;;;19.18;58.18;101159.34;1719318;82;21142;-49
2021/05/21 05:53:45;;;;;;;1.30;1.20;;;;;;;19.11;58.65;101167.16;1704257;82;21082;-49
2021/05/21 05:56:12;;;;;;;1.00;0.98;;;;;;;19.07;58.79;101176.16;1697021;81;21094;-48
2021/05/21 05:58:40;;;;;;;1.20;1.10;;;;;;;19.02;58.83;101177.33;1711199;82;21073;-48
2021/05/21 06:01:06;;;;;;;1.17;1.10;;;;;;;18.95;59.11;101179.41;1721036;82;21619;-49
2021/05/21 06:03:33;;;;;;;1.32;1.17;;;;;;;18.92;59.57;101175.59;1700279;81;21129;-49
2021/05/21 06:06:00;;;;;;;1.25;0.90;;;;;;;18.95;59.58;101182.05;1700983;82;23203;-49
2021/05/21 06:08:26;;;;;;;0.80;0.80;;;;;;;19.00;59.58;101177.38;1718286;82;21049;-48
2021/05/21 06:10:53;;;;;;;1.52;1.15;;;;;;;19.06;59.40;101180.20;1715110;81;21697;-48
2021/05/21 06:13:24;;;;;;;0.80;0.80;;;;;;;19.16;59.44;101187.58;1713129;82;21628;-49
2021/05/21 06:15:51;;;;;;;1.12;0.98;;;;;;;19.25;59.25;101187.09;1699461;83;21605;-49
2021/05/21 06:18:18;;;;;;;1.80;1.00;;;;;;;19.35;58.96;101189.69;1695468;82;21553;-48
2021/05/21 06:20:45;;;;;;;0.90;0.90;;;;;;;19.41;58.60;101194.66;1717484;82;21612;-48
2021/05/21 06:23:12;;;;;;;2.70;1.12;;;;;;;19.47;58.74;101196.14;1703426;82;21640;-48
2021/05/21 06:28:12;;;;;;;1.10;0.90;;;;;;;19.59;58.68;101203.89;1723421;82;21097;-48
2021/05/21 06:30:39;;;;;;;1.22;1.07;;;;;;;19.60;58.33;101201.65;1758009;79;21015;-48
2021/05/21 06:33:06;;;;;;;1.22;1.02;;;;;;;19.62;58.26;101206.38;1781773;79;21032;-48
2021/05/21 06:35:36;;;;;;;1.32;1.10;;;;;;;19.63;58.23;101205.44;1779520;79;21043;-49
2021/05/21 06:38:04;;;;;;;0.95;0.90;;;;;;;19.71;58.06;101214.67;1770338;79;21535;-48
2021/05/21 06:40:31;;;;;;;1.65;1.00;;;;;;;19.74;57.79;101212.34;1774787;80;21068;-48
2021/05/21 06:42:57;;;;;;;1.17;0.88;;;;;;;19.71;57.60;101203.24;1780568;80;21031;-47
2021/05/21 06:45:24;;;;;;;1.30;1.05;;;;;;;19.66;57.62;101203.97;1776428;79;21613;-49
2021/05/21 06:47:51;;;;;;;1.87;1.10;;;;;;;19.64;57.81;101205.84;1768143;80;21060;-48
2021/05/21 06:50:17;;;;;;;1.25;1.02;;;;;;;19.63;58.00;101208.08;1783707;79;21036;-49
2021/05/21 06:52:44;;;;;;;1.22;1.02;;;;;;;19.66;58.24;101205.29;1776908;79;21020;-49
2021/05/21 06:55:13;;;;;;;1.65;0.80;;;;;;;19.70;57.91;101204.20;1774400;79;21720;-48
2021/05/21 06:57:40;;;;;;;1.62;0.90;;;;;;;19.71;57.68;101208.52;1779404;79;21697;-48
2021/05/21 07:00:09;;;;;;;1.02;0.93;;;;;;;19.70;57.86;101217.40;1767301;79;21096;-48
2021/05/21 07:02:35;;;;;;;0.90;0.90;;;;;;;19.69;57.68;101217.85;1784121;79;21047;-49
2021/05/21 07:05:03;;;;;;;0.90;0.90;;;;;;;19.70;57.69;101222.67;1747770;80;21080;-48
2021/05/21 07:07:31;;;;;;;1.25;1.10;;;;;;;19.66;57.76;101222.45;1777239;79;21060;-49
2021/05/21 07:10:00;;;;;;;1.20;1.10;;;;;;;19.64;57.79;101222.50;1782259;79;21558;-49
2021/05/21 07:12:28;;;;;;;1.40;1.30;;;;;;;19.59;57.66;101226.33;1772729;79;21140;-49
2021/05/21 07:14:56;;;;;;;0.93;0.93;;;;;;;19.49;58.04;101224.63;1757575;80;21129;-49
2021/05/21 07:17:23;;;;;;;1.17;1.10;;;;;;;19.45;58.10;101229.19;1760671;80;21068;-49
2021/05/21 07:19:50;;;;;;;1.35;1.10;;;;;;;19.40;58.41;101231.23;1765256;80;21040;-49
2021/05/21 07:22:17;;;;;;;1.55;1.10;;;;;;;19.39;58.47;101242.70;1767926;79;21527;-49
2021/05/21 07:24:44;;;;;;;1.30;1.10;;;;;;;19.35;58.60;101243.78;1762448;79;21112;-49
2021/05/21 07:27:11;;;;;;;1.30;1.20;;;;;;;19.33;58.55;101245.64;1782782;79;21041;-49
2021/05/21 07:29:37;;;;;;;1.10;1.10;;;;;;;19.29;58.27;101238.78;1767896;79;21037;-49
2021/05/21 07:32:07;;;;;;;0.90;0.90;;;;;;;19.26;57.13;101244.23;1765474;80;21070;-48
2021/05/21 07:34:34;;;;;;;1.45;0.85;;;;;;;19.23;56.71;101252.28;1746180;81;21032;-48
2021/05/21 07:37:03;;;;;;;2.52;0.90;;;;;;;19.21;56.34;101258.09;1750541;81;21028;-48
2021/05/21 07:39:31;;;;;;;1.10;1.00;;;;;;;19.18;56.23;101256.09;1704144;83;21539;-48
2021/05/21 07:41:58;;;;;;;2.50;1.20;;;;;;;19.16;56.14;101260.13;1714829;82;21111;-48
2021/05/21 07:44:26;;;;;;;1.10;0.98;;;;;;;19.14;56.38;101271.22;1708448;83;21626;-48
2021/05/21 07:46:53;;;;;;;1.30;1.20;;;;;;;19.15;56.47;101270.27;1703492;82;21085;-48
2021/05/21 07:49:25;;;;;;;2.33;1.20;;;;;;;19.13;56.31;101277.87;1714104;82;21109;-47
2021/05/21 07:51:52;;;;;;;8.85;1.60;;;;;;;19.10;56.32;101280.18;1713160;82;21040;-47
2021/05/21 07:54:19;;;;;;;1.45;0.95;;;;;;;19.09;56.20;101291.68;1783437;79;21064;-47
2021/05/21 07:56:46;;;;;;;7.90;1.35;;;;;;;19.07;56.10;101288.26;1776990;80;21071;-47
2021/05/21 07:59:13;;;;;;;2.55;1.15;;;;;;;19.07;55.82;101298.81;1784229;79;21048;-48
2021/05/21 08:01:40;;;;;;;1.05;1.05;;;;;;;19.06;55.96;101306.32;1762349;80;21613;-49
2021/05/21 08:04:07;;;;;;;1.15;1.05;;;;;;;19.04;55.88;101302.91;1775573;79;21064;-48
2021/05/21 08:06:34;;;;;;;3.75;1.10;;;;;;;19.03;56.23;101309.13;1781565;80;21040;-49
2021/05/21 08:09:04;;;;;;;1.50;1.30;;;;;;;19.02;56.00;101310.03;1773685;79;21363;-48
2021/05/21 08:11:32;;;;;;;1.50;1.40;;;;;;;19.01;55.98;101313.61;1771736;80;21053;-48
2021/05/21 08:13:59;;;;;;;2.85;1.22;;;;;;;19.01;56.23;101320.20;1765106;79;21035;-50
2021/05/21 08:16:28;;;;;;;2.27;1.57;;;;;;;19.01;56.02;101317.57;1775484;80;21099;-49
2021/05/21 08:18:57;;;;;;;1.57;1.47;;;;;;;19.02;55.76;101317.12;1777396;80;21083;-49
2021/05/21 08:21:27;;;;;;;2.02;1.45;;;;;;;19.04;55.89;101327.12;1717247;82;21152;-48
2021/05/21 08:23:55;;;;;;;2.35;1.42;;;;;;;19.03;55.47;101331.55;1716481;81;21064;-50
2021/05/21 08:26:27;;;;;;;5.03;2.77;;;;;;;19.02;55.47;101329.81;1677784;85;21112;-47
2021/05/21 08:28:57;;;;;;;2.50;1.75;;;;;;;18.99;55.36;101332.61;1656528;84;21045;-49
2021/05/21 08:31:24;;;;;;;2.05;1.52;;;;;;;18.98;55.48;101338.80;1643450;85;21670;-48
2021/05/21 08:33:51;;;;;;;3.20;1.50;;;;;;;18.97;55.49;101334.47;1716517;82;21059;-48
2021/05/21 08:36:20;;;;;;;2.22;1.57;;;;;;;18.96;55.20;101335.37;1736664;82;21055;-48
2021/05/21 08:38:46;;;;;;;1.30;1.20;;;;;;;18.95;55.59;101343.38;1721478;81;21029;-46
2021/05/21 08:41:26;;;;;;;1.40;1.30;;;;;;;18.95;55.58;101341.60;1739293;82;21051;-48
2021/05/21 08:43:54;;;;;;;2.40;1.42;;;;;;;18.94;55.04;101345.15;1715960;81;21661;-47
2021/05/21 08:46:22;;;;;;;3.10;1.20;;;;;;;18.92;54.95;101350.95;1718411;81;21068;-48
2021/05/21 08:48:49;;;;;;;1.70;1.30;;;;;;;18.90;54.64;101355.45;1708738;82;21080;-48
2021/05/21 08:51:17;;;;;;;1.55;1.32;;;;;;;18.89;54.70;101357.71;1674219;85;21160;-48
2021/05/21 08:53:44;;;;;;;1.82;1.50;;;;;;;18.89;55.07;101360.34;1718772;81;21060;-49
2021/05/21 08:56:10;;;;;;;2.12;1.70;;;;;;;18.92;55.35;101367.27;1724128;82;21069;-47
2021/05/21 08:58:40;;;;;;;1.30;1.20;;;;;;;18.92;55.74;101368.09;1700637;82;21132;-48
2021/05/21 09:01:07;;;;;;;6.40;1.35;;;;;;;19.00;55.38;101368.59;1667945;85;21131;-48
2021/05/21 09:03:34;;;;;;;2.25;1.25;;;;;;;19.00;55.25;101373.87;1724309;81;21578;-48
2021/05/21 09:08:48;;;;;;;5.20;1.32;;;;;;;18.98;54.80;101369.13;1720724;82;21635;-49
2021/05/21 09:11:35;;;;;;;3.50;1.55;;;;;;;19.01;54.95;101363.73;1674777;85;21564;-48
2021/05/21 09:14:16;;;;;;;1.65;1.20;;;;;;;19.04;55.14;101362.25;1709872;82;21075;-48
2021/05/21 09:16:44;;;;;;;4.17;1.52;;;;;;;19.06;55.28;101361.71;1729879;81;22894;-48
2021/05/21 09:19:18;;;;;;;1.20;1.10;;;;;;;19.11;55.14;101363.69;1714636;81;21093;-48
2021/05/21 09:22:05;;;;;;;0.95;0.95;;;;;;;19.14;55.01;101362.69;1708794;82;21584;-47
2021/05/21 09:24:45;;;;;;;3.45;1.02;;;;;;;19.17;54.82;101351.52;1723733;81;21075;-48
2021/05/21 09:27:13;;;;;;;30.20;3.12;;;;;;;19.20;55.09;101360.62;1707650;82;21077;-48
2021/05/21 09:29:50;;;;;;;71.55;6.37;;;;;;;19.28;55.65;101362.88;1715600;82;21064;-47
2021/05/21 09:32:29;;;;;;;29.30;3.17;;;;;;;19.34;55.26;101360.84;1714542;82;21091;-48
2021/05/21 09:35:15;;;;;;;42.62;3.80;;;;;;;19.39;55.45;101354.03;1713704;82;21579;-48
2021/05/21 09:37:55;;;;;;;130.47;15.45;;;;;;;19.45;55.69;101358.52;1729124;81;21072;-48
2021/05/21 09:40:26;;;;;;;15.32;3.02;;;;;;;19.57;55.64;101357.54;1724265;80;21111;-48
2021/05/21 09:43:03;;;;;;;77.78;9.60;;;;;;;19.67;55.77;101343.81;1743985;82;21653;-48
2021/05/21 09:45:36;;;;;;;8.00;2.27;;;;;;;19.79;55.81;101344.97;1722050;81;21024;-49
2021/05/21 09:48:07;;;;;;;2.87;1.22;;;;;;;19.92;55.73;101339.47;1641421;86;21112;-48
2021/05/21 09:50:42;;;;;;;;;;;;;;;20.05;55.51;101343.20;1656389;86;21107;-47
2021/05/21 09:53:19;;;;;;;62.62;6.70;;;;;;;20.22;55.53;101352.45;1656219;86;20157;-49
2021/05/21 09:56:01;;;;;;;36.38;5.00;;;;;;;20.36;54.76;101352.57;1644845;85;21077;-49
2021/05/21 09:58:40;;;;;;;24.63;4.67;;;;;;;20.50;54.84;101344.80;1563208;90;21224;-49
2021/05/21 10:01:16;;;;;;;1.77;1.32;;;;;;;20.59;54.43;101350.89;1565350;90;21180;-49
2021/05/21 10:03:51;;;;;;;8.45;1.70;;;;;;;20.69;53.92;101354.74;1561179;90;21704;-49
2021/05/21 10:06:18;;;;;;;2.83;1.30;;;;;;;20.77;53.59;101364.93;1555610;90;21156;-50
2021/05/21 10:08:46;;;;;;;1.75;1.65;;;;;;;20.83;54.02;101352.23;1564273;90;21122;-49
2021/05/21 10:11:14;;;;;;;2.55;1.50;;;;;;;20.92;53.33;101350.84;1568422;90;21184;-50
2021/05/21 10:13:43;;;;;;;1.47;1.37;;;;;;;20.98;53.51;101348.72;1555508;90;21662;-49
2021/05/21 10:16:13;;;;;;;1.35;1.17;;;;;;;21.05;53.21;101350.59;1549892;90;21078;-50
2021/05/21 10:18:46;;;;;;;1.50;1.40;;;;;;;21.13;53.38;101347.52;1531801;92;21083;-49
2021/05/21 10:21:12;;;;;;;;;;;;;;;21.24;53.31;101349.09;1487623;94;21652;-49
2021/05/21 10:23:44;;;;;;;1.02;1.00;;;;;;;21.35;53.02;101345.39;1510431;93;20198;-49
2021/05/21 10:26:15;;;;;;;4.65;1.40;;;;;;;21.40;52.09;101350.80;1494274;94;21232;-49
2021/05/21 10:28:46;;;;;;;1.60;1.20;;;;;;;21.38;52.88;101347.84;1466905;95;21119;-50
2021/05/21 10:31:14;;;;;;;2.10;1.30;;;;;;;21.45;53.12;101343.92;1492123;95;21648;-49
2021/05/21 10:33:43;;;;;;;1.98;0.88;;;;;;;21.52;53.35;101346.58;1489155;94;21139;-49
2021/05/21 10:36:29;;;;;;;1.37;1.05;;;;;;;21.63;53.14;101346.83;1498198;94;21218;-49
2021/05/21 10:39:18;;;;;;;1.80;1.10;;;;;;;21.70;52.96;101346.86;1497083;94;21183;-47
2021/05/21 10:42:20;;;;;;;1.40;1.20;;;;;;;21.69;52.68;101343.36;1464137;96;21172;-48
2021/05/21 10:45:22;;;;;;;1.10;0.90;;;;;;;21.73;53.25;101347.98;1490611;91;21906;-49
2021/05/21 10:47:59;;;;;;;1.05;0.88;;;;;;;21.77;52.62;101352.16;1537259;92;21228;-48
2021/05/21 10:50:38;;;;;;;0.80;0.80;;;;;;;21.73;52.53;101354.15;1517920;91;21099;-50
2021/05/21 10:53:09;;;;;;;2.58;0.90;;;;;;;21.67;52.70;101344.38;1544244;90;21158;-49
2021/05/21 10:55:41;;;;;;;1.98;1.40;;;;;;;21.63;53.22;101338.87;1591366;87;21075;-49
2021/05/21 10:58:07;;;;;;;0.82;0.82;;;;;;;21.60;53.10;101349.64;1642102;87;21577;-49
2021/05/21 11:00:37;;;;;;;1.70;1.32;;;;;;;21.58;53.35;101341.78;1615905;86;21084;-48
2021/05/21 11:03:05;;;;;;;1.10;1.00;;;;;;;21.61;53.14;101343.41;1602690;87;21104;-48
2021/05/21 11:05:36;;;;;;;2.70;1.10;;;;;;;21.59;53.07;101341.32;1630646;87;21077;-49
2021/05/21 11:08:07;;;;;;;1.42;1.15;;;;;;;21.54;53.21;101340.26;1607579;87;21082;-50
2021/05/21 11:10:39;;;;;;;1.75;0.88;;;;;;;21.50;53.91;101335.22;1625066;87;21084;-48
2021/05/21 11:13:11;;;;;;;1.22;1.12;;;;;;;21.58;53.63;101334.30;1649031;86;21092;-48
2021/05/21 11:15:47;;;;;;;1.55;0.90;;;;;;;21.63;53.57;101335.77;1651088;86;21044;-50
2021/05/21 11:18:20;;;;;;;1.98;1.05;;;;;;;21.65;53.23;101337.86;1651880;86;21092;-48
2021/05/21 11:21:06;;;;;;;2.60;1.20;;;;;;;21.66;53.38;101333.38;1642079;87;21611;-48
2021/05/21 11:23:48;;;;;;;1.85;1.10;;;;;;;21.70;53.54;101338.42;1632522;86;21118;-49
2021/05/21 11:26:21;;;;;;;3.27;1.32;;;;;;;21.78;53.52;101345.94;1658876;85;21072;-48
2021/05/21 11:28:57;;;;;;;1.62;1.15;;;;;;;21.80;53.15;101341.41;1658564;85;21053;-49
2021/05/21 11:31:32;;;;;;;1.10;1.00;;;;;;;21.83;53.33;101339.45;1637590;86;21080;-49
2021/05/21 11:34:01;;;;;;;1.10;1.00;;;;;;;21.86;53.37;101343.23;1637937;86;21043;-50
2021/05/21 11:36:34;;;;;;;1.00;1.00;;;;;;;21.90;53.60;101342.59;1636363;86;21080;-49
2021/05/21 11:39:02;;;;;;;1.10;0.80;;;;;;;21.94;52.75;101343.26;1637287;86;21088;-49